sensor_id;sensor_type;location;lat;lon;timestamp;P1;P2;P0
65556;PMS3003;52200;53.490;14.376;2023-03-20T00:02:20;45.20;38.00;25.00
65556;PMS3003;52200;53.490;14.376;2023-03-20T00:04:47;52.40;39.00;24.00
65556;PMS3003;52200;53.490;14.376;2023-03-20T00:07:12;43.75;36.50;22.50
65556;PMS3003;52200;53.490;14.376;2023-03-20T00:09:38;46.75;39.00;23.50
65556;PMS3003;52200;53.490;14.376;2023-03-20T00:12:03;47.00;38.00;23.25
65556;PMS3003;52200;53.490;14.376;2023-03-20T00:14:29;41.75;36.00;23.25
65556;PMS3003;52200;53.490;14.376;2023-03-20T00:16:55;53.00;38.00;23.50
65556;PMS3003;52200;53.490;14.376;2023-03-20T00:19:21;41.50;33.25;22.00
65556;PMS3003;52200;53.490;14.376;2023-03-20T00:21:48;42.40;32.60;21.00
65556;PMS3003;52200;53.490;14.376;2023-03-20T00:24:15;46.20;37.00;21.80
65556;PMS3003;52200;53.490;14.376;2023-03-20T00:26:41;37.80;32.00;20.00
65556;PMS3003;52200;53.490;14.376;2023-03-20T00:29:14;35.80;29.60;18.00
65556;PMS3003;52200;53.490;14.376;2023-03-20T00:31:45;41.20;35.60;21.40
65556;PMS3003;52200;53.490;14.376;2023-03-20T00:34:12;37.25;29.75;18.50
65556;PMS3003;52200;53.490;14.376;2023-03-20T00:36:39;41.20;32.40;20.00
65556;PMS3003;52200;53.490;14.376;2023-03-20T00:39:05;41.00;32.75;20.25
65556;PMS3003;52200;53.490;14.376;2023-03-20T00:41:41;42.20;34.40;20.00
65556;PMS3003;52200;53.490;14.376;2023-03-20T00:44:22;42.80;34.40;21.00
65556;PMS3003;52200;53.490;14.376;2023-03-20T00:46:49;47.60;38.20;23.60
65556;PMS3003;52200;53.490;14.376;2023-03-20T00:49:19;41.60;33.00;20.80
65556;PMS3003;52200;53.490;14.376;2023-03-20T00:51:47;43.60;35.80;20.60
65556;PMS3003;52200;53.490;14.376;2023-03-20T00:54:13;43.00;33.00;19.75
65556;PMS3003;52200;53.490;14.376;2023-03-20T00:56:58;38.40;33.40;21.20
65556;PMS3003;52200;53.490;14.376;2023-03-20T00:59:30;47.80;37.80;24.60
65556;PMS3003;52200;53.490;14.376;2023-03-20T01:01:59;54.00;40.00;25.00
65556;PMS3003;52200;53.490;14.376;2023-03-20T01:04:27;46.80;37.00;24.20
65556;PMS3003;52200;53.490;14.376;2023-03-20T01:07:02;49.60;39.40;23.20
65556;PMS3003;52200;53.490;14.376;2023-03-20T01:09:29;48.40;38.20;23.40
65556;PMS3003;52200;53.490;14.376;2023-03-20T01:11:54;49.00;37.75;24.25
65556;PMS3003;52200;53.490;14.376;2023-03-20T01:14:20;40.25;35.00;21.25
65556;PMS3003;52200;53.490;14.376;2023-03-20T01:16:45;41.00;30.75;21.50
65556;PMS3003;52200;53.490;14.376;2023-03-20T01:19:12;43.25;37.75;23.00
65556;PMS3003;52200;53.490;14.376;2023-03-20T01:21:38;44.20;35.80;24.00
65556;PMS3003;52200;53.490;14.376;2023-03-20T01:24:04;43.40;34.80;21.80
65556;PMS3003;52200;53.490;14.376;2023-03-20T01:26:34;45.25;36.50;24.75
65556;PMS3003;52200;53.490;14.376;2023-03-20T01:29:02;50.00;38.20;25.00
65556;PMS3003;52200;53.490;14.376;2023-03-20T01:31:28;57.60;42.40;25.20
65556;PMS3003;52200;53.490;14.376;2023-03-20T01:33:54;53.50;40.00;25.25
65556;PMS3003;52200;53.490;14.376;2023-03-20T01:36:21;47.00;38.00;23.80
65556;PMS3003;52200;53.490;14.376;2023-03-20T01:38:54;47.40;38.00;25.00
65556;PMS3003;52200;53.490;14.376;2023-03-20T01:41:22;47.80;36.40;21.80
65556;PMS3003;52200;53.490;14.376;2023-03-20T01:43:49;42.00;36.80;22.60
65556;PMS3003;52200;53.490;14.376;2023-03-20T01:46:19;46.50;37.25;22.25
65556;PMS3003;52200;53.490;14.376;2023-03-20T01:51:18;44.50;34.75;21.00
65556;PMS3003;52200;53.490;14.376;2023-03-20T01:53:46;50.80;39.40;22.60
65556;PMS3003;52200;53.490;14.376;2023-03-20T01:56:15;53.80;40.80;25.80
65556;PMS3003;52200;53.490;14.376;2023-03-20T01:58:45;45.20;39.00;23.80
65556;PMS3003;52200;53.490;14.376;2023-03-20T02:01:14;50.40;38.60;22.60
65556;PMS3003;52200;53.490;14.376;2023-03-20T02:03:42;56.00;41.00;25.80
65556;PMS3003;52200;53.490;14.376;2023-03-20T02:06:11;53.80;39.80;24.20
65556;PMS3003;52200;53.490;14.376;2023-03-20T02:08:47;54.50;42.00;27.25
65556;PMS3003;52200;53.490;14.376;2023-03-20T02:11:14;58.40;42.80;25.40
65556;PMS3003;52200;53.490;14.376;2023-03-20T02:13:43;47.20;38.80;22.60
65556;PMS3003;52200;53.490;14.376;2023-03-20T02:16:10;45.40;38.00;23.40
65556;PMS3003;52200;53.490;14.376;2023-03-20T02:18:37;44.00;31.80;20.60
65556;PMS3003;52200;53.490;14.376;2023-03-20T02:38:03;49.00;37.40;22.40
65556;PMS3003;52200;53.490;14.376;2023-03-20T02:43:18;51.80;37.60;22.00
65556;PMS3003;52200;53.490;14.376;2023-03-20T02:54:06;44.60;38.80;21.00
65556;PMS3003;52200;53.490;14.376;2023-03-20T02:59:40;49.60;39.60;23.20
65556;PMS3003;52200;53.490;14.376;2023-03-20T03:02:52;48.60;40.00;22.60
65556;PMS3003;52200;53.490;14.376;2023-03-20T03:05:55;43.80;36.20;22.20
65556;PMS3003;52200;53.490;14.376;2023-03-20T03:08:36;42.20;38.20;23.80
65556;PMS3003;52200;53.490;14.376;2023-03-20T03:11:07;46.20;39.80;22.20
65556;PMS3003;52200;53.490;14.376;2023-03-20T03:13:37;51.60;41.40;22.60
65556;PMS3003;52200;53.490;14.376;2023-03-20T03:16:23;43.00;37.00;22.40
65556;PMS3003;52200;53.490;14.376;2023-03-20T03:19:26;46.00;36.20;23.80
65556;PMS3003;52200;53.490;14.376;2023-03-20T03:21:48;44.20;36.20;21.00
65556;PMS3003;52200;53.490;14.376;2023-03-20T03:24:20;40.40;36.40;21.40
65556;PMS3003;52200;53.490;14.376;2023-03-20T03:26:51;46.80;38.20;22.80
65556;PMS3003;52200;53.490;14.376;2023-03-20T03:29:17;45.60;34.00;21.40
65556;PMS3003;52200;53.490;14.376;2023-03-20T03:31:46;41.00;35.00;20.80
65556;PMS3003;52200;53.490;14.376;2023-03-20T03:34:14;44.80;37.20;21.00
65556;PMS3003;52200;53.490;14.376;2023-03-20T03:41:52;41.00;34.40;21.00
65556;PMS3003;52200;53.490;14.376;2023-03-20T03:44:29;41.60;34.20;21.00
65556;PMS3003;52200;53.490;14.376;2023-03-20T03:47:07;44.60;36.20;23.40
65556;PMS3003;52200;53.490;14.376;2023-03-20T03:49:40;46.80;39.40;21.80
65556;PMS3003;52200;53.490;14.376;2023-03-20T03:52:12;43.60;34.40;23.40
65556;PMS3003;52200;53.490;14.376;2023-03-20T03:54:54;44.00;35.60;22.00
65556;PMS3003;52200;53.490;14.376;2023-03-20T03:57:28;46.20;35.80;22.40
65556;PMS3003;52200;53.490;14.376;2023-03-20T03:59:58;44.20;39.20;22.40
65556;PMS3003;52200;53.490;14.376;2023-03-20T04:02:30;51.40;39.60;24.40
65556;PMS3003;52200;53.490;14.376;2023-03-20T04:04:57;50.20;39.60;24.20
65556;PMS3003;52200;53.490;14.376;2023-03-20T04:07:26;56.20;39.80;23.40
65556;PMS3003;52200;53.490;14.376;2023-03-20T04:09:53;48.60;38.60;23.40
65556;PMS3003;52200;53.490;14.376;2023-03-20T04:14:59;43.80;36.20;23.80
65556;PMS3003;52200;53.490;14.376;2023-03-20T04:17:25;46.00;38.60;23.40
65556;PMS3003;52200;53.490;14.376;2023-03-20T04:19:50;43.75;37.75;22.00
65556;PMS3003;52200;53.490;14.376;2023-03-20T04:22:16;44.50;37.25;21.75
65556;PMS3003;52200;53.490;14.376;2023-03-20T04:24:41;45.00;40.25;22.00
65556;PMS3003;52200;53.490;14.376;2023-03-20T04:27:07;43.50;37.25;22.75
65556;PMS3003;52200;53.490;14.376;2023-03-20T04:29:32;48.75;40.50;25.00
65556;PMS3003;52200;53.490;14.376;2023-03-20T04:31:57;45.25;38.50;22.00
65556;PMS3003;52200;53.490;14.376;2023-03-20T04:34:23;49.20;39.80;21.00
65556;PMS3003;52200;53.490;14.376;2023-03-20T04:36:49;46.00;39.25;23.50
65556;PMS3003;52200;53.490;14.376;2023-03-20T04:39:14;51.25;37.75;23.50
65556;PMS3003;52200;53.490;14.376;2023-03-20T04:41:40;46.60;38.00;22.80
65556;PMS3003;52200;53.490;14.376;2023-03-20T04:44:06;43.75;35.25;22.00
65556;PMS3003;52200;53.490;14.376;2023-03-20T04:46:31;41.50;36.75;22.50
65556;PMS3003;52200;53.490;14.376;2023-03-20T04:48:57;43.50;33.75;21.00
65556;PMS3003;52200;53.490;14.376;2023-03-20T04:51:22;44.75;36.50;22.25
65556;PMS3003;52200;53.490;14.376;2023-03-20T04:53:48;44.75;36.25;22.25
65556;PMS3003;52200;53.490;14.376;2023-03-20T04:56:13;44.25;35.50;21.50
65556;PMS3003;52200;53.490;14.376;2023-03-20T04:58:39;47.75;37.25;22.75
65556;PMS3003;52200;53.490;14.376;2023-03-20T05:01:04;46.75;37.50;22.00
65556;PMS3003;52200;53.490;14.376;2023-03-20T05:03:30;41.25;34.50;22.25
65556;PMS3003;52200;53.490;14.376;2023-03-20T05:05:55;44.00;36.00;21.25
65556;PMS3003;52200;53.490;14.376;2023-03-20T05:08:21;44.25;38.50;23.25
65556;PMS3003;52200;53.490;14.376;2023-03-20T05:10:46;49.25;38.25;22.25
65556;PMS3003;52200;53.490;14.376;2023-03-20T05:13:12;45.75;38.00;22.75
65556;PMS3003;52200;53.490;14.376;2023-03-20T05:15:37;46.50;38.75;23.25
65556;PMS3003;52200;53.490;14.376;2023-03-20T05:18:02;46.50;39.00;23.00
65556;PMS3003;52200;53.490;14.376;2023-03-20T05:20:28;53.25;43.50;25.50
65556;PMS3003;52200;53.490;14.376;2023-03-20T05:22:53;41.75;36.25;22.50
65556;PMS3003;52200;53.490;14.376;2023-03-20T05:25:19;45.00;38.25;24.00
65556;PMS3003;52200;53.490;14.376;2023-03-20T05:27:45;50.75;41.00;25.00
65556;PMS3003;52200;53.490;14.376;2023-03-20T05:30:11;48.40;38.40;22.60
65556;PMS3003;52200;53.490;14.376;2023-03-20T05:32:38;52.40;41.00;23.80
65556;PMS3003;52200;53.490;14.376;2023-03-20T05:35:04;46.40;39.80;23.80
65556;PMS3003;52200;53.490;14.376;2023-03-20T05:37:31;49.60;40.20;24.00
65556;PMS3003;52200;53.490;14.376;2023-03-20T05:39:56;51.00;41.50;23.75
65556;PMS3003;52200;53.490;14.376;2023-03-20T05:42:21;52.25;41.00;24.00
65556;PMS3003;52200;53.490;14.376;2023-03-20T05:44:47;48.50;40.00;25.25
65556;PMS3003;52200;53.490;14.376;2023-03-20T05:47:12;48.75;40.75;23.50
65556;PMS3003;52200;53.490;14.376;2023-03-20T05:49:37;62.75;45.50;25.75
65556;PMS3003;52200;53.490;14.376;2023-03-20T05:52:03;48.75;41.75;25.00
65556;PMS3003;52200;53.490;14.376;2023-03-20T05:54:28;60.25;44.75;25.50
65556;PMS3003;52200;53.490;14.376;2023-03-20T05:56:53;54.75;44.00;27.00
65556;PMS3003;52200;53.490;14.376;2023-03-20T05:59:19;54.00;44.00;26.25
65556;PMS3003;52200;53.490;14.376;2023-03-20T06:01:44;62.00;48.00;29.50
65556;PMS3003;52200;53.490;14.376;2023-03-20T06:04:10;65.25;50.25;28.00
65556;PMS3003;52200;53.490;14.376;2023-03-20T06:06:35;56.00;42.00;25.25
65556;PMS3003;52200;53.490;14.376;2023-03-20T06:09:02;52.00;40.60;26.00
65556;PMS3003;52200;53.490;14.376;2023-03-20T06:11:28;63.40;45.80;27.40
65556;PMS3003;52200;53.490;14.376;2023-03-20T06:13:54;61.00;42.75;25.25
65556;PMS3003;52200;53.490;14.376;2023-03-20T06:16:22;51.00;41.20;23.20
65556;PMS3003;52200;53.490;14.376;2023-03-20T06:18:47;57.00;41.50;25.25
65556;PMS3003;52200;53.490;14.376;2023-03-20T06:21:13;55.75;43.00;25.75
65556;PMS3003;52200;53.490;14.376;2023-03-20T06:23:38;59.25;45.00;26.25
65556;PMS3003;52200;53.490;14.376;2023-03-20T06:26:03;56.75;43.00;26.50
65556;PMS3003;52200;53.490;14.376;2023-03-20T06:28:29;56.25;42.50;24.00
65556;PMS3003;52200;53.490;14.376;2023-03-20T06:30:54;56.00;43.00;26.00
65556;PMS3003;52200;53.490;14.376;2023-03-20T06:33:20;50.40;40.40;24.00
65556;PMS3003;52200;53.490;14.376;2023-03-20T06:35:46;54.75;42.00;26.75
65556;PMS3003;52200;53.490;14.376;2023-03-20T06:38:12;48.80;39.80;26.20
65556;PMS3003;52200;53.490;14.376;2023-03-20T06:40:38;54.00;42.50;26.25
65556;PMS3003;52200;53.490;14.376;2023-03-20T06:43:03;51.50;40.75;24.00
65556;PMS3003;52200;53.490;14.376;2023-03-20T06:45:29;52.25;41.50;24.25
65556;PMS3003;52200;53.490;14.376;2023-03-20T06:47:55;54.60;41.40;24.80
65556;PMS3003;52200;53.490;14.376;2023-03-20T06:50:20;46.25;38.00;23.25
65556;PMS3003;52200;53.490;14.376;2023-03-20T06:52:46;53.75;39.50;23.75
65556;PMS3003;52200;53.490;14.376;2023-03-20T06:55:12;51.80;38.80;23.60
65556;PMS3003;52200;53.490;14.376;2023-03-20T06:57:37;53.50;42.00;24.00
65556;PMS3003;52200;53.490;14.376;2023-03-20T07:00:03;53.75;38.00;24.00
65556;PMS3003;52200;53.490;14.376;2023-03-20T07:02:29;45.20;37.40;22.80
65556;PMS3003;52200;53.490;14.376;2023-03-20T07:04:55;47.00;38.25;20.75
65556;PMS3003;52200;53.490;14.376;2023-03-20T07:07:20;49.00;40.75;24.50
65556;PMS3003;52200;53.490;14.376;2023-03-20T07:09:46;54.50;41.00;24.00
65556;PMS3003;52200;53.490;14.376;2023-03-20T07:12:12;54.50;42.25;25.25
65556;PMS3003;52200;53.490;14.376;2023-03-20T07:14:39;53.40;41.00;24.40
65556;PMS3003;52200;53.490;14.376;2023-03-20T07:17:06;52.40;38.00;23.60
65556;PMS3003;52200;53.490;14.376;2023-03-20T07:19:33;50.00;38.20;22.60
65556;PMS3003;52200;53.490;14.376;2023-03-20T07:21:59;45.40;37.60;21.20
65556;PMS3003;52200;53.490;14.376;2023-03-20T07:24:28;53.20;41.20;24.00
65556;PMS3003;52200;53.490;14.376;2023-03-20T07:26:54;55.20;42.80;24.60
65556;PMS3003;52200;53.490;14.376;2023-03-20T07:29:19;48.25;39.00;24.00
65556;PMS3003;52200;53.490;14.376;2023-03-20T07:31:45;52.00;39.75;24.00
65556;PMS3003;52200;53.490;14.376;2023-03-20T07:34:10;46.75;37.75;21.50
65556;PMS3003;52200;53.490;14.376;2023-03-20T07:36:36;53.80;38.40;23.80
65556;PMS3003;52200;53.490;14.376;2023-03-20T07:39:02;41.75;36.50;23.00
65556;PMS3003;52200;53.490;14.376;2023-03-20T07:41:27;56.50;42.50;24.00
65556;PMS3003;52200;53.490;14.376;2023-03-20T07:43:53;51.50;40.25;23.50
65556;PMS3003;52200;53.490;14.376;2023-03-20T07:46:18;49.50;39.50;24.00
65556;PMS3003;52200;53.490;14.376;2023-03-20T07:48:43;45.00;37.75;23.50
65556;PMS3003;52200;53.490;14.376;2023-03-20T07:51:09;53.00;39.50;25.50
65556;PMS3003;52200;53.490;14.376;2023-03-20T07:53:34;53.00;41.75;24.00
65556;PMS3003;52200;53.490;14.376;2023-03-20T07:56:01;48.60;38.40;22.40
65556;PMS3003;52200;53.490;14.376;2023-03-20T07:58:26;56.00;40.00;23.00
65556;PMS3003;52200;53.490;14.376;2023-03-20T08:00:51;54.25;41.00;25.50
65556;PMS3003;52200;53.490;14.376;2023-03-20T08:03:17;55.50;42.50;24.75
65556;PMS3003;52200;53.490;14.376;2023-03-20T08:05:42;55.75;40.50;23.00
65556;PMS3003;52200;53.490;14.376;2023-03-20T08:08:07;54.00;41.50;23.00
65556;PMS3003;52200;53.490;14.376;2023-03-20T08:10:33;51.75;39.25;23.00
65556;PMS3003;52200;53.490;14.376;2023-03-20T08:12:58;48.25;38.00;22.00
65556;PMS3003;52200;53.490;14.376;2023-03-20T08:15:24;52.50;38.25;23.00
65556;PMS3003;52200;53.490;14.376;2023-03-20T08:17:49;54.00;39.25;20.25
65556;PMS3003;52200;53.490;14.376;2023-03-20T08:20:15;56.00;39.50;22.25
65556;PMS3003;52200;53.490;14.376;2023-03-20T08:22:42;53.40;38.80;22.40
65556;PMS3003;52200;53.490;14.376;2023-03-20T08:25:10;47.40;38.80;21.40
65556;PMS3003;52200;53.490;14.376;2023-03-20T08:27:36;41.20;33.60;21.00
65556;PMS3003;52200;53.490;14.376;2023-03-20T08:30:03;44.40;35.60;20.00
65556;PMS3003;52200;53.490;14.376;2023-03-20T08:32:28;46.00;36.40;21.40
65556;PMS3003;52200;53.490;14.376;2023-03-20T08:34:54;51.00;38.00;22.75
65556;PMS3003;52200;53.490;14.376;2023-03-20T08:37:19;52.25;37.25;20.50
65556;PMS3003;52200;53.490;14.376;2023-03-20T08:39:45;51.20;37.40;21.80
65556;PMS3003;52200;53.490;14.376;2023-03-20T08:42:11;48.75;37.50;20.00
65556;PMS3003;52200;53.490;14.376;2023-03-20T08:44:36;51.25;37.25;21.50
65556;PMS3003;52200;53.490;14.376;2023-03-20T08:47:01;46.00;35.00;19.75
65556;PMS3003;52200;53.490;14.376;2023-03-20T08:49:29;41.00;33.00;18.60
65556;PMS3003;52200;53.490;14.376;2023-03-20T08:51:55;46.00;36.00;17.50
65556;PMS3003;52200;53.490;14.376;2023-03-20T08:54:20;39.50;33.25;19.25
65556;PMS3003;52200;53.490;14.376;2023-03-20T08:56:46;37.25;29.50;17.25
65556;PMS3003;52200;53.490;14.376;2023-03-20T08:59:11;39.75;31.50;17.50
65556;PMS3003;52200;53.490;14.376;2023-03-20T09:01:37;41.50;33.75;17.00
65556;PMS3003;52200;53.490;14.376;2023-03-20T09:04:02;35.25;27.25;16.50
65556;PMS3003;52200;53.490;14.376;2023-03-20T09:06:28;43.00;32.60;17.60
65556;PMS3003;52200;53.490;14.376;2023-03-20T09:08:54;32.50;27.00;15.25
65556;PMS3003;52200;53.490;14.376;2023-03-20T09:11:21;36.80;27.80;17.20
65556;PMS3003;52200;53.490;14.376;2023-03-20T09:13:46;37.00;29.75;16.25
65556;PMS3003;52200;53.490;14.376;2023-03-20T09:16:12;35.00;29.00;16.00
65556;PMS3003;52200;53.490;14.376;2023-03-20T09:18:37;37.50;32.25;16.00
65556;PMS3003;52200;53.490;14.376;2023-03-20T09:21:02;36.25;30.25;16.50
65556;PMS3003;52200;53.490;14.376;2023-03-20T09:23:28;37.25;31.25;16.50
65556;PMS3003;52200;53.490;14.376;2023-03-20T09:25:54;38.60;30.60;15.60
65556;PMS3003;52200;53.490;14.376;2023-03-20T09:28:20;36.25;30.25;15.00
65556;PMS3003;52200;53.490;14.376;2023-03-20T09:30:45;34.00;26.00;14.25
65556;PMS3003;52200;53.490;14.376;2023-03-20T09:33:10;36.75;30.00;16.00
65556;PMS3003;52200;53.490;14.376;2023-03-20T09:35:36;36.25;28.50;16.00
65556;PMS3003;52200;53.490;14.376;2023-03-20T09:38:02;39.60;30.20;17.00
65556;PMS3003;52200;53.490;14.376;2023-03-20T09:40:28;34.50;27.50;15.00
65556;PMS3003;52200;53.490;14.376;2023-03-20T09:48:45;34.40;26.40;14.00
65556;PMS3003;52200;53.490;14.376;2023-03-20T09:56:52;36.60;28.40;14.00
65556;PMS3003;52200;53.490;14.376;2023-03-20T09:59:20;33.20;27.20;14.60
65556;PMS3003;52200;53.490;14.376;2023-03-20T10:01:49;34.60;26.20;13.60
65556;PMS3003;52200;53.490;14.376;2023-03-20T10:04:18;30.00;24.20;11.20
65556;PMS3003;52200;53.490;14.376;2023-03-20T10:06:43;32.25;23.00;13.00
65556;PMS3003;52200;53.490;14.376;2023-03-20T10:09:13;33.50;26.50;13.75
65556;PMS3003;52200;53.490;14.376;2023-03-20T10:14:19;31.80;25.80;15.40
65556;PMS3003;52200;53.490;14.376;2023-03-20T10:17:20;30.20;25.40;12.40
65556;PMS3003;52200;53.490;14.376;2023-03-20T10:20:01;30.20;23.80;13.20
65556;PMS3003;52200;53.490;14.376;2023-03-20T10:22:35;33.40;25.60;13.80
65556;PMS3003;52200;53.490;14.376;2023-03-20T10:25:13;32.20;24.60;12.80
65556;PMS3003;52200;53.490;14.376;2023-03-20T10:27:45;30.80;22.40;12.00
65556;PMS3003;52200;53.490;14.376;2023-03-20T10:33:13;35.00;27.00;15.80
65556;PMS3003;52200;53.490;14.376;2023-03-20T10:39:05;26.60;18.20;10.00
65556;PMS3003;52200;53.490;14.376;2023-03-20T10:41:36;35.20;28.00;16.80
65556;PMS3003;52200;53.490;14.376;2023-03-20T10:44:05;28.60;19.80;11.40
65556;PMS3003;52200;53.490;14.376;2023-03-20T10:46:40;20.80;13.60;7.20
65556;PMS3003;52200;53.490;14.376;2023-03-20T10:49:10;19.00;13.20;5.40
65556;PMS3003;52200;53.490;14.376;2023-03-20T10:51:46;15.80;10.20;5.60
65556;PMS3003;52200;53.490;14.376;2023-03-20T10:56:55;24.60;21.20;10.00
65556;PMS3003;52200;53.490;14.376;2023-03-20T10:59:24;15.20;11.00;5.60
65556;PMS3003;52200;53.490;14.376;2023-03-20T11:01:52;14.00;8.40;4.00
65556;PMS3003;52200;53.490;14.376;2023-03-20T11:04:18;22.40;14.40;7.00
65556;PMS3003;52200;53.490;14.376;2023-03-20T11:06:48;14.50;9.75;4.00
65556;PMS3003;52200;53.490;14.376;2023-03-20T11:09:19;13.00;8.00;3.40
65556;PMS3003;52200;53.490;14.376;2023-03-20T11:11:46;14.60;11.00;3.00
65556;PMS3003;52200;53.490;14.376;2023-03-20T11:14:19;12.00;7.00;3.00
65556;PMS3003;52200;53.490;14.376;2023-03-20T11:16:49;11.60;7.40;3.20
65556;PMS3003;52200;53.490;14.376;2023-03-20T11:19:17;10.00;5.00;2.20
65556;PMS3003;52200;53.490;14.376;2023-03-20T11:21:46;10.60;6.00;3.00
65556;PMS3003;52200;53.490;14.376;2023-03-20T11:24:21;10.60;5.40;2.20
65556;PMS3003;52200;53.490;14.376;2023-03-20T11:26:48;12.60;7.60;4.20
65556;PMS3003;52200;53.490;14.376;2023-03-20T11:29:26;11.40;6.80;4.00
65556;PMS3003;52200;53.490;14.376;2023-03-20T11:31:54;12.20;8.80;4.00
65556;PMS3003;52200;53.490;14.376;2023-03-20T11:34:29;14.00;6.20;3.00
65556;PMS3003;52200;53.490;14.376;2023-03-20T11:36:58;11.60;7.20;3.00
65556;PMS3003;52200;53.490;14.376;2023-03-20T11:39:29;12.60;8.00;4.00
65556;PMS3003;52200;53.490;14.376;2023-03-20T11:41:57;13.00;8.80;4.60
65556;PMS3003;52200;53.490;14.376;2023-03-20T11:44:29;10.00;6.00;3.00
65556;PMS3003;52200;53.490;14.376;2023-03-20T11:47:04;10.80;5.80;3.00
65556;PMS3003;52200;53.490;14.376;2023-03-20T11:49:51;14.00;10.00;4.00
65556;PMS3003;52200;53.490;14.376;2023-03-20T11:52:21;19.20;14.00;7.00
65556;PMS3003;52200;53.490;14.376;2023-03-20T11:54:50;20.00;15.00;8.80
65556;PMS3003;52200;53.490;14.376;2023-03-20T11:57:37;23.80;18.00;8.40
65556;PMS3003;52200;53.490;14.376;2023-03-20T12:02:30;19.25;15.00;8.00
65556;PMS3003;52200;53.490;14.376;2023-03-20T12:04:59;23.75;18.25;9.00
65556;PMS3003;52200;53.490;14.376;2023-03-20T12:07:27;24.40;16.40;9.20
65556;PMS3003;52200;53.490;14.376;2023-03-20T12:10:06;20.60;16.20;8.60
65556;PMS3003;52200;53.490;14.376;2023-03-20T12:12:46;25.60;17.80;9.80
65556;PMS3003;52200;53.490;14.376;2023-03-20T12:18:16;33.00;25.00;13.80
65556;PMS3003;52200;53.490;14.376;2023-03-20T12:32:19;27.40;17.20;7.40
65556;PMS3003;52200;53.490;14.376;2023-03-20T12:34:58;21.40;14.00;6.60
65556;PMS3003;52200;53.490;14.376;2023-03-20T12:37:35;21.80;16.40;8.00
65556;PMS3003;52200;53.490;14.376;2023-03-20T12:40:00;19.25;13.75;7.00
65556;PMS3003;52200;53.490;14.376;2023-03-20T12:42:38;18.00;11.00;5.00
65556;PMS3003;52200;53.490;14.376;2023-03-20T12:46:07;11.40;7.20;2.80
65556;PMS3003;52200;53.490;14.376;2023-03-20T12:51:22;12.00;8.00;3.00
65556;PMS3003;52200;53.490;14.376;2023-03-20T12:54:08;12.20;6.20;2.60
65556;PMS3003;52200;53.490;14.376;2023-03-20T13:05:13;9.00;3.80;1.80
65556;PMS3003;52200;53.490;14.376;2023-03-20T13:10:59;12.40;8.00;3.00
65556;PMS3003;52200;53.490;14.376;2023-03-20T13:13:48;12.20;6.20;2.00
65556;PMS3003;52200;53.490;14.376;2023-03-20T13:16:28;14.20;8.60;2.80
65556;PMS3003;52200;53.490;14.376;2023-03-20T13:19:06;10.60;5.40;2.00
65556;PMS3003;52200;53.490;14.376;2023-03-20T13:27:10;11.00;5.60;2.00
65556;PMS3003;52200;53.490;14.376;2023-03-20T13:35:21;11.80;5.80;2.80
65556;PMS3003;52200;53.490;14.376;2023-03-20T13:37:56;12.00;8.00;2.40
65556;PMS3003;52200;53.490;14.376;2023-03-20T13:40:28;13.60;8.20;4.20
65556;PMS3003;52200;53.490;14.376;2023-03-20T13:45:51;13.00;8.40;3.40
65556;PMS3003;52200;53.490;14.376;2023-03-20T14:00:14;11.00;5.20;2.00
65556;PMS3003;52200;53.490;14.376;2023-03-20T14:02:49;11.60;3.40;1.20
65556;PMS3003;52200;53.490;14.376;2023-03-20T14:05:19;10.00;3.40;2.00
65556;PMS3003;52200;53.490;14.376;2023-03-20T14:07:47;5.80;2.20;1.00
65556;PMS3003;52200;53.490;14.376;2023-03-20T14:12:55;8.20;4.00;1.00
65556;PMS3003;52200;53.490;14.376;2023-03-20T14:15:25;11.60;6.20;3.00
65556;PMS3003;52200;53.490;14.376;2023-03-20T14:17:55;7.00;3.00;2.00
65556;PMS3003;52200;53.490;14.376;2023-03-20T14:20:31;6.00;2.80;1.00
65556;PMS3003;52200;53.490;14.376;2023-03-20T14:22:59;6.40;3.00;1.80
65556;PMS3003;52200;53.490;14.376;2023-03-20T14:25:25;8.20;4.60;2.20
65556;PMS3003;52200;53.490;14.376;2023-03-20T14:27:59;9.00;4.80;2.00
65556;PMS3003;52200;53.490;14.376;2023-03-20T14:35:29;7.40;1.80;0.00
65556;PMS3003;52200;53.490;14.376;2023-03-20T14:40:50;9.60;4.60;2.00
65556;PMS3003;52200;53.490;14.376;2023-03-20T14:48:45;6.00;2.00;1.00
65556;PMS3003;52200;53.490;14.376;2023-03-20T14:56:46;6.60;2.80;1.00
65556;PMS3003;52200;53.490;14.376;2023-03-20T14:59:19;9.00;4.00;2.00
65556;PMS3003;52200;53.490;14.376;2023-03-20T15:01:47;7.20;2.80;1.00
65556;PMS3003;52200;53.490;14.376;2023-03-20T15:04:34;6.00;1.40;0.40
65556;PMS3003;52200;53.490;14.376;2023-03-20T15:07:05;5.00;2.00;0.00
65556;PMS3003;52200;53.490;14.376;2023-03-20T15:09:39;5.80;1.00;0.00
65556;PMS3003;52200;53.490;14.376;2023-03-20T15:12:08;6.00;2.40;0.60
65556;PMS3003;52200;53.490;14.376;2023-03-20T15:14:59;5.40;2.00;1.00
65556;PMS3003;52200;53.490;14.376;2023-03-20T15:22:59;7.40;3.00;1.00
65556;PMS3003;52200;53.490;14.376;2023-03-20T15:25:37;5.00;1.60;0.60
65556;PMS3003;52200;53.490;14.376;2023-03-20T15:28:07;5.40;2.00;1.00
65556;PMS3003;52200;53.490;14.376;2023-03-20T15:30:37;5.80;2.40;0.40
65556;PMS3003;52200;53.490;14.376;2023-03-20T15:33:04;7.00;2.00;0.00
65556;PMS3003;52200;53.490;14.376;2023-03-20T15:35:31;6.00;1.80;1.00
65556;PMS3003;52200;53.490;14.376;2023-03-20T15:37:57;4.50;1.00;0.00
65556;PMS3003;52200;53.490;14.376;2023-03-20T15:40:30;6.20;1.60;0.00
65556;PMS3003;52200;53.490;14.376;2023-03-20T15:43:09;5.60;2.00;0.40
65556;PMS3003;52200;53.490;14.376;2023-03-20T15:45:42;5.00;2.00;1.00
65556;PMS3003;52200;53.490;14.376;2023-03-20T15:48:18;4.00;1.00;0.00
65556;PMS3003;52200;53.490;14.376;2023-03-20T15:50:45;5.00;2.00;1.00
65556;PMS3003;52200;53.490;14.376;2023-03-20T15:53:18;5.40;1.80;0.00
65556;PMS3003;52200;53.490;14.376;2023-03-20T15:56:07;4.00;0.00;0.00
65556;PMS3003;52200;53.490;14.376;2023-03-20T15:58:36;4.60;1.00;0.60
65556;PMS3003;52200;53.490;14.376;2023-03-20T16:01:03;7.80;3.00;1.00
65556;PMS3003;52200;53.490;14.376;2023-03-20T16:03:30;9.00;4.00;1.00
65556;PMS3003;52200;53.490;14.376;2023-03-20T16:05:58;9.00;3.00;0.00
65556;PMS3003;52200;53.490;14.376;2023-03-20T16:08:28;9.40;5.20;1.40
65556;PMS3003;52200;53.490;14.376;2023-03-20T16:10:56;5.80;2.40;0.60
65556;PMS3003;52200;53.490;14.376;2023-03-20T16:13:32;7.80;4.00;1.00
65556;PMS3003;52200;53.490;14.376;2023-03-20T16:16:01;7.80;3.60;1.00
65556;PMS3003;52200;53.490;14.376;2023-03-20T16:18:28;9.40;4.40;1.60
65556;PMS3003;52200;53.490;14.376;2023-03-20T16:21:01;9.80;5.00;1.00
65556;PMS3003;52200;53.490;14.376;2023-03-20T16:23:48;8.80;3.60;1.00